Time;durP1;ratioP1;P1;durP2;ratioP2;P2;SDS_P1;SDS_P2;PMS_P1;PMS_P2;Temp;Humidity;BMP_temperature;BMP_pressure;BME280_temperature;BME280_humidity;BME280_pressure;Samples;Min_cycle;Max_cycle;Signal;HPM_P1;HPM_P2
2021/06/15 00:02:14;;;;;;;5.27;4.60;;;;;;;;;;5049102;28;20206;-56
2021/06/15 00:04:40;;;;;;;5.33;4.77;;;;;;;;;;5049138;28;20187;-55
2021/06/15 00:07:06;;;;;;;5.77;5.20;;;;;;;;;;5046677;28;20181;-57
2021/06/15 00:09:32;;;;;;;6.53;4.73;;;;;;;;;;5050698;28;20177;-56
2021/06/15 00:11:58;;;;;;;5.57;5.07;;;;;;;;;;5048101;28;20189;-55
2021/06/15 00:14:24;;;;;;;5.30;4.80;;;;;;;;;;5045727;28;20182;-57
2021/06/15 00:16:50;;;;;;;5.10;4.60;;;;;;;;;;5045536;28;20177;-55
2021/06/15 00:19:16;;;;;;;5.40;4.90;;;;;;;;;;5048627;28;20261;-55
2021/06/15 00:21:43;;;;;;;6.83;4.90;;;;;;;;;;5049258;28;20185;-54
2021/06/15 00:24:09;;;;;;;4.87;4.43;;;;;;;;;;5048752;28;20181;-55
2021/06/15 00:26:35;;;;;;;5.10;4.60;;;;;;;;;;5047761;28;20226;-55
2021/06/15 00:29:01;;;;;;;5.80;4.97;;;;;;;;;;5050212;28;20181;-54
2021/06/15 00:31:27;;;;;;;5.13;4.53;;;;;;;;;;5050453;28;20195;-54
2021/06/15 00:33:54;;;;;;;6.27;4.87;;;;;;;;;;5049104;28;20204;-54
2021/06/15 00:36:20;;;;;;;5.20;4.70;;;;;;;;;;5051277;28;20196;-56
2021/06/15 00:38:46;;;;;;;5.47;4.97;;;;;;;;;;5047172;28;20186;-56
2021/06/15 00:41:12;;;;;;;5.03;4.53;;;;;;;;;;5050559;28;20178;-54
2021/06/15 00:43:38;;;;;;;5.60;5.07;;;;;;;;;;5042574;28;20242;-58
2021/06/15 00:46:04;;;;;;;5.90;5.40;;;;;;;;;;5050190;28;20207;-55
2021/06/15 00:48:34;;;;;;;7.33;5.30;;;;;;;;;;5048834;28;20551;-56
2021/06/15 00:51:01;;;;;;;5.37;4.87;;;;;;;;;;5048302;28;20184;-56
2021/06/15 00:53:28;;;;;;;4.97;4.57;;;;;;;;;;5050681;28;20240;-55
2021/06/15 00:55:54;;;;;;;5.87;5.03;;;;;;;;;;5049193;28;20185;-54
2021/06/15 00:58:21;;;;;;;5.67;4.80;;;;;;;;;;5050219;28;20639;-57
2021/06/15 01:00:48;;;;;;;5.33;4.83;;;;;;;;;;5049716;28;20534;-55
2021/06/15 01:03:14;;;;;;;5.73;5.13;;;;;;;;;;5048346;28;20204;-54
2021/06/15 01:05:40;;;;;;;6.20;5.60;;;;;;;;;;5049959;28;20184;-55
2021/06/15 01:08:25;;;;;;;5.47;4.93;;;;;;;;;;5049686;28;20195;-55
2021/06/15 01:11:03;;;;;;;5.13;4.73;;;;;;;;;;5049613;28;20185;-54
2021/06/15 01:13:48;;;;;;;5.93;5.33;;;;;;;;;;5049109;28;20232;-54
2021/06/15 01:16:24;;;;;;;5.33;4.83;;;;;;;;;;5046311;28;20298;-54
2021/06/15 01:18:54;;;;;;;5.97;5.37;;;;;;;;;;5041988;28;20179;-54
2021/06/15 01:21:21;;;;;;;5.73;5.23;;;;;;;;;;5049219;28;20179;-54
2021/06/15 01:23:50;;;;;;;5.83;4.90;;;;;;;;;;5049366;28;20190;-54
2021/06/15 01:26:27;;;;;;;5.90;5.37;;;;;;;;;;5049393;28;20190;-54
2021/06/15 01:28:57;;;;;;;6.00;4.97;;;;;;;;;;5048979;28;20175;-54
2021/06/15 01:31:26;;;;;;;9.23;5.63;;;;;;;;;;5046497;28;20518;-55
2021/06/15 01:34:02;;;;;;;7.17;5.73;;;;;;;;;;5030191;28;20522;-54
2021/06/15 01:36:36;;;;;;;5.70;5.10;;;;;;;;;;5049278;28;20261;-54
2021/06/15 01:39:05;;;;;;;5.70;5.20;;;;;;;;;;5048600;28;20171;-55
2021/06/15 01:41:36;;;;;;;5.87;5.30;;;;;;;;;;5028905;28;20249;-54
2021/06/15 01:44:05;;;;;;;7.10;5.57;;;;;;;;;;5049136;28;20201;-55
2021/06/15 01:46:33;;;;;;;6.07;5.27;;;;;;;;;;5048464;28;20195;-54
2021/06/15 01:49:05;;;;;;;5.77;5.23;;;;;;;;;;5047614;28;20651;-55
2021/06/15 01:51:32;;;;;;;6.83;5.63;;;;;;;;;;5047217;28;20190;-55
2021/06/15 01:54:09;;;;;;;7.23;5.10;;;;;;;;;;5048108;28;20197;-55
2021/06/15 01:56:37;;;;;;;6.30;5.70;;;;;;;;;;5046513;28;20198;-54
2021/06/15 01:59:04;;;;;;;5.97;5.43;;;;;;;;;;5047843;28;20271;-56
2021/06/15 02:01:34;;;;;;;7.10;5.13;;;;;;;;;;5048460;28;20286;-54
2021/06/15 02:04:00;;;;;;;6.27;5.67;;;;;;;;;;5045557;28;20608;-54
2021/06/15 02:06:27;;;;;;;6.37;5.77;;;;;;;;;;5048766;28;20256;-56
2021/06/15 02:08:55;;;;;;;7.40;6.00;;;;;;;;;;5048602;28;20553;-55
2021/06/15 02:11:23;;;;;;;8.07;6.67;;;;;;;;;;5048581;28;20199;-55
2021/06/15 02:13:49;;;;;;;7.03;5.70;;;;;;;;;;5048852;28;20561;-55
2021/06/15 02:16:16;;;;;;;7.73;6.47;;;;;;;;;;5019707;28;20222;-55
2021/06/15 02:18:45;;;;;;;7.17;6.47;;;;;;;;;;5028748;28;20210;-55
2021/06/15 02:21:12;;;;;;;7.40;5.87;;;;;;;;;;5032838;28;20265;-57
2021/06/15 02:23:39;;;;;;;7.83;6.10;;;;;;;;;;5029290;28;20182;-55
2021/06/15 02:26:06;;;;;;;6.27;5.70;;;;;;;;;;5027008;28;20197;-55
2021/06/15 02:28:33;;;;;;;6.83;6.13;;;;;;;;;;5027310;28;20613;-56
2021/06/15 02:31:03;;;;;;;7.83;6.97;;;;;;;;;;5028546;28;20216;-55
2021/06/15 02:33:32;;;;;;;6.63;6.07;;;;;;;;;;5027695;28;20209;-55
2021/06/15 02:36:00;;;;;;;6.80;6.10;;;;;;;;;;5028492;28;20231;-55
2021/06/15 02:38:30;;;;;;;6.77;6.07;;;;;;;;;;5027952;28;20662;-58
2021/06/15 02:40:59;;;;;;;6.57;5.97;;;;;;;;;;5025574;28;20467;-54
2021/06/15 02:43:26;;;;;;;6.33;5.83;;;;;;;;;;5026490;28;20187;-55
2021/06/15 02:45:54;;;;;;;7.23;6.20;;;;;;;;;;5027239;28;20184;-57
2021/06/15 02:48:22;;;;;;;8.37;6.50;;;;;;;;;;5026636;28;20550;-55
2021/06/15 02:50:48;;;;;;;7.90;6.40;;;;;;;;;;5026138;28;20669;-54
2021/06/15 02:53:19;;;;;;;8.23;7.37;;;;;;;;;;5028566;28;20285;-54
2021/06/15 02:55:48;;;;;;;7.90;7.10;;;;;;;;;;5029199;28;20376;-55
2021/06/15 02:58:14;;;;;;;7.50;6.23;;;;;;;;;;5030760;28;20536;-54
2021/06/15 03:00:40;;;;;;;7.30;6.23;;;;;;;;;;5028034;28;20190;-55
2021/06/15 03:03:06;;;;;;;7.13;6.20;;;;;;;;;;5026923;28;20205;-55
2021/06/15 03:05:33;;;;;;;6.70;5.90;;;;;;;;;;5023548;28;20184;-55
2021/06/15 03:07:59;;;;;;;6.97;6.27;;;;;;;;;;5030115;28;20281;-54
2021/06/15 03:10:25;;;;;;;7.53;6.57;;;;;;;;;;5030707;28;20194;-54
2021/06/15 03:13:01;;;;;;;7.13;6.03;;;;;;;;;;5031175;28;20198;-54
2021/06/15 03:15:41;;;;;;;7.40;5.97;;;;;;;;;;5040338;28;20230;-54
2021/06/15 03:18:08;;;;;;;7.50;6.70;;;;;;;;;;5050764;28;20177;-54
2021/06/15 03:20:36;;;;;;;6.97;6.10;;;;;;;;;;5051080;28;20174;-54
2021/06/15 03:23:09;;;;;;;7.20;6.50;;;;;;;;;;5050740;28;20186;-55
2021/06/15 03:25:36;;;;;;;8.47;7.13;;;;;;;;;;5049712;28;20266;-54
2021/06/15 03:28:21;;;;;;;7.07;6.37;;;;;;;;;;5048961;28;20268;-54
2021/06/15 03:30:48;;;;;;;7.80;6.37;;;;;;;;;;5050197;28;20253;-55
2021/06/15 03:33:15;;;;;;;8.70;6.47;;;;;;;;;;5049444;28;20226;-54
2021/06/15 03:35:43;;;;;;;7.77;6.73;;;;;;;;;;5032333;28;20252;-56
2021/06/15 03:38:09;;;;;;;8.53;6.57;;;;;;;;;;5049072;28;20181;-55
2021/06/15 03:40:38;;;;;;;6.47;5.87;;;;;;;;;;5050424;28;20185;-54
2021/06/15 03:43:06;;;;;;;7.23;6.53;;;;;;;;;;5049353;28;20549;-54
2021/06/15 03:45:34;;;;;;;8.30;6.70;;;;;;;;;;5050708;28;20261;-54
2021/06/15 03:48:01;;;;;;;6.53;5.90;;;;;;;;;;5048560;28;20274;-53
2021/06/15 03:50:28;;;;;;;7.10;6.50;;;;;;;;;;5044836;28;20277;-54
2021/06/15 03:52:55;;;;;;;7.87;7.07;;;;;;;;;;5041766;28;20203;-55
2021/06/15 03:55:23;;;;;;;6.90;6.30;;;;;;;;;;5048427;28;20388;-54
2021/06/15 03:57:49;;;;;;;10.73;6.27;;;;;;;;;;5048741;28;20177;-54
2021/06/15 04:00:18;;;;;;;7.80;6.37;;;;;;;;;;5047134;28;20180;-55
2021/06/15 04:02:46;;;;;;;6.87;6.23;;;;;;;;;;5047696;28;20235;-55
2021/06/15 04:05:13;;;;;;;6.93;6.23;;;;;;;;;;5046648;28;20571;-54
2021/06/15 04:07:40;;;;;;;7.40;6.10;;;;;;;;;;5048180;28;20184;-54
2021/06/15 04:10:07;;;;;;;7.63;6.93;;;;;;;;;;5044447;28;20267;-53
2021/06/15 04:12:33;;;;;;;7.40;6.50;;;;;;;;;;5049420;28;20197;-55
2021/06/15 04:15:00;;;;;;;7.47;5.87;;;;;;;;;;5045530;28;20268;-54
2021/06/15 04:17:28;;;;;;;6.70;6.10;;;;;;;;;;5048677;28;20193;-54
2021/06/15 04:19:55;;;;;;;7.20;6.53;;;;;;;;;;5050133;28;20190;-57
2021/06/15 04:22:22;;;;;;;9.93;6.30;;;;;;;;;;5049068;28;20192;-54
2021/06/15 04:24:51;;;;;;;9.47;6.67;;;;;;;;;;5043939;28;20237;-54
2021/06/15 04:27:20;;;;;;;6.97;6.37;;;;;;;;;;5043688;28;20183;-55
2021/06/15 04:29:47;;;;;;;8.37;6.70;;;;;;;;;;5049440;28;20198;-55
2021/06/15 04:32:14;;;;;;;6.83;6.20;;;;;;;;;;5048156;28;20231;-54
2021/06/15 04:34:41;;;;;;;9.83;6.97;;;;;;;;;;5048090;28;20220;-57
2021/06/15 04:37:09;;;;;;;7.03;6.33;;;;;;;;;;5046236;28;20167;-54
2021/06/15 04:39:40;;;;;;;7.77;6.23;;;;;;;;;;5009250;28;20226;-54
2021/06/15 04:42:07;;;;;;;11.53;7.60;;;;;;;;;;5049210;28;20187;-57
2021/06/15 04:44:36;;;;;;;12.27;10.33;;;;;;;;;;5043814;28;20183;-58
2021/06/15 04:47:20;;;;;;;11.23;9.90;;;;;;;;;;5049326;28;20617;-56
2021/06/15 04:49:48;;;;;;;10.73;9.63;;;;;;;;;;5042158;28;20272;-56
2021/06/15 04:52:16;;;;;;;11.27;9.53;;;;;;;;;;5046582;28;20350;-59
2021/06/15 04:54:46;;;;;;;12.27;10.13;;;;;;;;;;5047899;28;20196;-57
2021/06/15 04:57:14;;;;;;;12.07;10.53;;;;;;;;;;5047754;28;20184;-57
2021/06/15 04:59:41;;;;;;;13.23;10.37;;;;;;;;;;5048173;28;20535;-58
2021/06/15 05:02:08;;;;;;;13.13;10.67;;;;;;;;;;5048044;28;20201;-58
2021/06/15 05:04:34;;;;;;;12.97;11.20;;;;;;;;;;5049451;28;20177;-57
2021/06/15 05:07:01;;;;;;;11.80;10.60;;;;;;;;;;5048433;28;20596;-57
2021/06/15 05:09:29;;;;;;;13.53;11.33;;;;;;;;;;5031405;28;20620;-56
2021/06/15 05:11:56;;;;;;;15.93;10.80;;;;;;;;;;5048839;28;20177;-58
2021/06/15 05:14:26;;;;;;;12.90;9.53;;;;;;;;;;5030286;28;20209;-56
2021/06/15 05:16:53;;;;;;;11.50;10.30;;;;;;;;;;5048984;28;20263;-57
2021/06/15 05:19:19;;;;;;;10.77;9.67;;;;;;;;;;5047959;28;20188;-56
2021/06/15 05:21:57;;;;;;;13.73;10.57;;;;;;;;;;5048178;28;20181;-59
2021/06/15 05:24:42;;;;;;;11.00;8.83;;;;;;;;;;5047829;28;20238;-54
2021/06/15 05:27:08;;;;;;;16.60;10.23;;;;;;;;;;5049221;28;20178;-55
2021/06/15 05:29:34;;;;;;;13.47;9.90;;;;;;;;;;5049412;28;20177;-56
2021/06/15 05:32:01;;;;;;;12.77;10.00;;;;;;;;;;5039423;28;20184;-56
2021/06/15 05:34:27;;;;;;;14.10;8.83;;;;;;;;;;5047669;28;20623;-53
2021/06/15 05:36:53;;;;;;;10.87;8.23;;;;;;;;;;5047686;28;20208;-53
2021/06/15 05:39:19;;;;;;;12.97;8.00;;;;;;;;;;5048659;28;20556;-53
2021/06/15 05:41:45;;;;;;;9.20;6.10;;;;;;;;;;5048913;28;20600;-55
2021/06/15 05:44:11;;;;;;;8.77;6.53;;;;;;;;;;5048484;28;20647;-54
2021/06/15 05:46:37;;;;;;;8.60;6.73;;;;;;;;;;5041056;28;20181;-55
2021/06/15 05:49:03;;;;;;;7.40;6.20;;;;;;;;;;5030415;28;20173;-53
2021/06/15 05:51:29;;;;;;;7.23;5.63;;;;;;;;;;5048252;28;20173;-53
2021/06/15 05:53:56;;;;;;;5.63;5.03;;;;;;;;;;5048349;28;20683;-53
2021/06/15 05:56:22;;;;;;;7.53;5.77;;;;;;;;;;5041786;28;20800;-53
2021/06/15 05:58:48;;;;;;;5.67;5.07;;;;;;;;;;5041698;28;20529;-53
2021/06/15 06:01:14;;;;;;;5.67;4.87;;;;;;;;;;5048821;28;20181;-52
2021/06/15 06:03:44;;;;;;;5.60;4.30;;;;;;;;;;5038792;28;20639;-52
2021/06/15 06:08:55;;;;;;;6.90;4.87;;;;;;;;;;5042295;28;20239;-54
2021/06/15 06:11:21;;;;;;;6.80;4.27;;;;;;;;;;5030665;28;20647;-55
2021/06/15 06:13:52;;;;;;;6.07;4.23;;;;;;;;;;5048681;28;20376;-54
2021/06/15 06:16:18;;;;;;;7.70;4.87;;;;;;;;;;5030176;28;20247;-53
2021/06/15 06:18:44;;;;;;;6.73;4.60;;;;;;;;;;5047648;28;20181;-52
2021/06/15 06:21:11;;;;;;;5.17;4.63;;;;;;;;;;5048341;28;20207;-52
2021/06/15 06:23:37;;;;;;;4.90;4.17;;;;;;;;;;5049495;28;20181;-53
2021/06/15 06:26:04;;;;;;;7.73;4.17;;;;;;;;;;5044041;28;20181;-54
2021/06/15 06:28:30;;;;;;;6.13;4.30;;;;;;;;;;5046290;28;20186;-54
2021/06/15 06:30:56;;;;;;;4.90;4.40;;;;;;;;;;5044029;28;20231;-54
2021/06/15 06:33:22;;;;;;;6.23;5.23;;;;;;;;;;5051101;28;20292;-54
2021/06/15 06:35:49;;;;;;;6.50;4.73;;;;;;;;;;5051975;28;20668;-53
2021/06/15 06:38:15;;;;;;;5.93;4.57;;;;;;;;;;5051965;28;20173;-53
2021/06/15 06:40:41;;;;;;;7.50;5.00;;;;;;;;;;5051472;28;20177;-54
2021/06/15 06:43:09;;;;;;;6.27;4.93;;;;;;;;;;5051375;28;20241;-54
2021/06/15 06:45:35;;;;;;;5.50;4.63;;;;;;;;;;5052066;28;20185;-53
2021/06/15 06:48:01;;;;;;;6.60;4.97;;;;;;;;;;5042938;28;20197;-53
2021/06/15 06:50:27;;;;;;;6.27;4.87;;;;;;;;;;5051617;28;20180;-54
2021/06/15 06:52:53;;;;;;;9.53;5.60;;;;;;;;;;5049434;28;20605;-53
2021/06/15 06:55:20;;;;;;;8.63;5.50;;;;;;;;;;5051679;28;20231;-55
2021/06/15 06:57:47;;;;;;;9.67;5.13;;;;;;;;;;5051268;28;20177;-56
2021/06/15 07:00:14;;;;;;;6.10;4.57;;;;;;;;;;5049749;28;20266;-54
2021/06/15 07:02:40;;;;;;;14.13;4.67;;;;;;;;;;5050460;28;20343;-54
2021/06/15 07:05:06;;;;;;;10.70;5.20;;;;;;;;;;5052270;28;20189;-54
2021/06/15 07:07:33;;;;;;;10.47;5.57;;;;;;;;;;5051983;28;20184;-53
2021/06/15 07:09:59;;;;;;;6.27;5.33;;;;;;;;;;5051647;28;20613;-53
2021/06/15 07:12:25;;;;;;;7.30;4.70;;;;;;;;;;5050823;28;20446;-55
2021/06/15 07:14:51;;;;;;;6.40;4.50;;;;;;;;;;5051741;28;20217;-54
2021/06/15 07:17:17;;;;;;;6.93;4.60;;;;;;;;;;5051217;28;20283;-53
2021/06/15 07:19:43;;;;;;;8.40;4.93;;;;;;;;;;5051891;28;20256;-53
2021/06/15 07:22:09;;;;;;;5.13;4.63;;;;;;;;;;5044044;28;20207;-53
2021/06/15 07:24:37;;;;;;;9.00;4.20;;;;;;;;;;5051190;28;20175;-53
2021/06/15 07:27:03;;;;;;;6.13;4.70;;;;;;;;;;5051692;28;20657;-56
2021/06/15 07:29:29;;;;;;;4.40;4.00;;;;;;;;;;5052021;28;20197;-53
2021/06/15 07:31:55;;;;;;;4.70;4.03;;;;;;;;;;5051379;28;20186;-54
2021/06/15 07:34:21;;;;;;;5.60;4.60;;;;;;;;;;5050392;28;20203;-55
2021/06/15 07:36:51;;;;;;;4.43;3.90;;;;;;;;;;5051219;28;20194;-55
2021/06/15 07:39:17;;;;;;;7.37;4.60;;;;;;;;;;5031793;28;20167;-53
2021/06/15 07:41:43;;;;;;;6.57;4.20;;;;;;;;;;5038532;28;20277;-55
2021/06/15 07:44:09;;;;;;;9.20;4.60;;;;;;;;;;5051122;28;20177;-53
2021/06/15 07:46:35;;;;;;;6.07;4.13;;;;;;;;;;5051358;28;20235;-55
2021/06/15 07:49:01;;;;;;;4.00;3.60;;;;;;;;;;5050405;28;20182;-53
2021/06/15 07:51:27;;;;;;;4.37;3.97;;;;;;;;;;5051364;28;20277;-55
2021/06/15 07:53:55;;;;;;;4.47;3.67;;;;;;;;;;5050987;28;20753;-54
2021/06/15 07:56:23;;;;;;;5.53;4.27;;;;;;;;;;5051122;28;20186;-55
2021/06/15 07:58:49;;;;;;;5.20;3.77;;;;;;;;;;5051189;28;20185;-53
2021/06/15 08:01:15;;;;;;;5.13;3.83;;;;;;;;;;5032758;28;20174;-53
2021/06/15 08:03:41;;;;;;;5.10;3.90;;;;;;;;;;5050207;28;20268;-54
2021/06/15 08:06:07;;;;;;;4.37;3.87;;;;;;;;;;5051124;28;20336;-54
2021/06/15 08:08:33;;;;;;;6.03;3.80;;;;;;;;;;5051364;28;20175;-54
2021/06/15 08:11:00;;;;;;;4.03;3.43;;;;;;;;;;5051980;28;20209;-54
2021/06/15 08:13:26;;;;;;;7.30;4.10;;;;;;;;;;5048753;28;20359;-53
2021/06/15 08:15:52;;;;;;;4.37;3.97;;;;;;;;;;5029684;28;20238;-54
2021/06/15 08:18:19;;;;;;;8.30;3.73;;;;;;;;;;5030599;28;20183;-55
2021/06/15 08:20:45;;;;;;;4.00;3.60;;;;;;;;;;5030584;28;20194;-53
2021/06/15 08:23:12;;;;;;;6.03;3.43;;;;;;;;;;5030242;28;20286;-53
2021/06/15 08:25:38;;;;;;;6.00;3.53;;;;;;;;;;5031340;28;20672;-53
2021/06/15 08:28:08;;;;;;;8.37;3.70;;;;;;;;;;5030578;28;20223;-54
2021/06/15 08:30:34;;;;;;;5.20;4.27;;;;;;;;;;5031305;28;20212;-53
2021/06/15 08:33:00;;;;;;;3.83;3.33;;;;;;;;;;5029510;28;20197;-53
2021/06/15 08:35:27;;;;;;;4.70;3.20;;;;;;;;;;5030199;28;20630;-54
2021/06/15 08:37:53;;;;;;;3.80;3.43;;;;;;;;;;5028428;28;20176;-54
2021/06/15 08:40:20;;;;;;;6.17;3.90;;;;;;;;;;5030697;28;20294;-54
2021/06/15 08:42:46;;;;;;;7.33;3.40;;;;;;;;;;5030319;28;20200;-53
2021/06/15 08:45:13;;;;;;;4.60;3.40;;;;;;;;;;5030796;28;20633;-54
2021/06/15 08:47:41;;;;;;;4.80;3.20;;;;;;;;;;5029038;28;20189;-55
2021/06/15 08:50:18;;;;;;;3.70;3.40;;;;;;;;;;5031044;28;20189;-54
2021/06/15 08:52:44;;;;;;;6.30;3.87;;;;;;;;;;5022624;28;20317;-55
2021/06/15 08:55:11;;;;;;;5.47;3.40;;;;;;;;;;5030338;28;20177;-54
2021/06/15 08:57:38;;;;;;;5.00;3.63;;;;;;;;;;5029848;28;20257;-54
2021/06/15 09:00:05;;;;;;;3.97;3.45;;;;;;;;;;5028759;28;20455;-55
2021/06/15 09:02:32;;;;;;;3.60;3.00;;;;;;;;;;5029331;28;20690;-54
2021/06/15 09:04:58;;;;;;;3.73;3.10;;;;;;;;;;5030223;28;20578;-55
2021/06/15 09:07:24;;;;;;;3.27;3.07;;;;;;;;;;5030156;28;20182;-54
2021/06/15 09:09:50;;;;;;;5.63;3.10;;;;;;;;;;5029626;28;20212;-54
2021/06/15 09:12:17;;;;;;;4.17;2.80;;;;;;;;;;5029363;28;20203;-53
2021/06/15 09:14:43;;;;;;;5.77;3.20;;;;;;;;;;5033988;28;20213;-54
2021/06/15 09:17:13;;;;;;;4.10;2.90;;;;;;;;;;5049255;28;20177;-56
2021/06/15 09:19:40;;;;;;;3.23;2.90;;;;;;;;;;5050333;28;20160;-55
2021/06/15 09:22:07;;;;;;;4.70;2.93;;;;;;;;;;5031555;28;20185;-55
2021/06/15 09:24:44;;;;;;;3.17;2.87;;;;;;;;;;5049716;28;20271;-54
2021/06/15 09:27:10;;;;;;;7.83;3.13;;;;;;;;;;5049077;28;20582;-55
2021/06/15 09:29:36;;;;;;;3.67;2.70;;;;;;;;;;5049853;28;20181;-55
2021/06/15 09:32:02;;;;;;;4.17;2.57;;;;;;;;;;5049289;28;20237;-54
2021/06/15 09:34:28;;;;;;;4.43;2.80;;;;;;;;;;5029953;28;20292;-54
2021/06/15 09:36:54;;;;;;;3.03;2.73;;;;;;;;;;5049356;28;20177;-57
2021/06/15 09:39:21;;;;;;;3.10;2.80;;;;;;;;;;5049631;28;20178;-54
2021/06/15 09:41:48;;;;;;;4.00;2.50;;;;;;;;;;5048748;28;20204;-55
2021/06/15 09:44:26;;;;;;;4.40;2.80;;;;;;;;;;5049958;28;20204;-55
2021/06/15 09:46:56;;;;;;;4.53;2.90;;;;;;;;;;5031968;28;20195;-53
2021/06/15 09:49:37;;;;;;;3.80;2.77;;;;;;;;;;5048647;28;20223;-54
2021/06/15 09:52:09;;;;;;;5.00;2.90;;;;;;;;;;5049661;28;20677;-54
2021/06/15 09:54:43;;;;;;;5.53;2.47;;;;;;;;;;5049713;28;20266;-54
2021/06/15 09:57:10;;;;;;;5.57;3.10;;;;;;;;;;5048515;28;20170;-55
2021/06/15 09:59:36;;;;;;;3.00;2.70;;;;;;;;;;5049268;28;20388;-57
2021/06/15 10:02:03;;;;;;;2.83;2.63;;;;;;;;;;5048792;28;20201;-55
2021/06/15 10:04:29;;;;;;;3.83;2.57;;;;;;;;;;5033037;28;20188;-55
2021/06/15 10:06:56;;;;;;;3.30;2.57;;;;;;;;;;5053439;28;20662;-55
2021/06/15 10:09:29;;;;;;;4.67;2.70;;;;;;;;;;5053932;28;20184;-54
2021/06/15 10:11:57;;;;;;;4.57;2.60;;;;;;;;;;5053184;28;20185;-55
2021/06/15 10:14:26;;;;;;;4.63;2.40;;;;;;;;;;5052989;28;20197;-55
2021/06/15 10:16:54;;;;;;;2.60;2.40;;;;;;;;;;5053393;28;20181;-55
2021/06/15 10:19:20;;;;;;;2.93;2.50;;;;;;;;;;5052853;28;20528;-55
2021/06/15 10:21:46;;;;;;;3.87;2.30;;;;;;;;;;5052595;28;20185;-55
2021/06/15 10:24:14;;;;;;;2.90;2.57;;;;;;;;;;5052983;28;20696;-55
2021/06/15 10:26:40;;;;;;;3.37;2.30;;;;;;;;;;5052677;28;20621;-56
2021/06/15 10:29:10;;;;;;;2.90;2.60;;;;;;;;;;5053096;28;20201;-55
2021/06/15 10:31:37;;;;;;;4.63;2.40;;;;;;;;;;5052567;28;20597;-54
2021/06/15 10:34:03;;;;;;;3.47;2.80;;;;;;;;;;5052019;28;20723;-55
2021/06/15 10:36:44;;;;;;;3.07;2.77;;;;;;;;;;5052546;28;20205;-54
2021/06/15 10:39:12;;;;;;;2.27;2.03;;;;;;;;;;5053551;28;20237;-55
2021/06/15 10:41:38;;;;;;;3.03;2.40;;;;;;;;;;5052551;28;20178;-54
2021/06/15 10:44:08;;;;;;;4.00;2.70;;;;;;;;;;5053011;28;20181;-55
2021/06/15 10:46:36;;;;;;;3.37;2.40;;;;;;;;;;5052501;28;20181;-55
2021/06/15 10:49:02;;;;;;;3.87;2.80;;;;;;;;;;5052141;28;20235;-55
2021/06/15 10:51:36;;;;;;;3.00;2.43;;;;;;;;;;5051942;28;20660;-55
2021/06/15 10:54:04;;;;;;;3.07;2.53;;;;;;;;;;5052761;28;20694;-55
2021/06/15 10:56:35;;;;;;;3.00;2.70;;;;;;;;;;5052174;28;20181;-54
2021/06/15 10:59:04;;;;;;;4.47;2.70;;;;;;;;;;5052384;28;20192;-55
2021/06/15 11:01:31;;;;;;;4.20;2.80;;;;;;;;;;5051440;28;20206;-55
2021/06/15 11:03:59;;;;;;;3.87;2.50;;;;;;;;;;5033706;28;20272;-54
2021/06/15 11:06:28;;;;;;;3.17;2.37;;;;;;;;;;5052303;28;20181;-55
2021/06/15 11:09:15;;;;;;;2.97;2.77;;;;;;;;;;5052493;28;20182;-55
2021/06/15 11:11:42;;;;;;;5.03;2.43;;;;;;;;;;5051643;28;20215;-56
2021/06/15 11:14:12;;;;;;;3.13;2.70;;;;;;;;;;5052567;28;20220;-54
2021/06/15 11:16:43;;;;;;;5.27;2.60;;;;;;;;;;5055889;28;20227;-54
2021/06/15 11:19:13;;;;;;;3.03;2.70;;;;;;;;;;5033522;28;20166;-54
2021/06/15 11:21:45;;;;;;;2.77;2.50;;;;;;;;;;5042494;28;20192;-54
2021/06/15 11:24:25;;;;;;;2.33;2.13;;;;;;;;;;5072169;28;20180;-56
2021/06/15 11:26:56;;;;;;;3.13;2.27;;;;;;;;;;5058458;28;20680;-55
2021/06/15 11:29:31;;;;;;;4.87;2.37;;;;;;;;;;5034019;28;20243;-55
2021/06/15 11:32:16;;;;;;;3.77;2.50;;;;;;;;;;5059351;28;20209;-54
2021/06/15 11:35:03;;;;;;;2.50;2.30;;;;;;;;;;5051899;28;20204;-55
2021/06/15 11:37:33;;;;;;;2.83;2.33;;;;;;;;;;5051404;28;20189;-55
2021/06/15 11:40:08;;;;;;;2.40;2.20;;;;;;;;;;5051762;28;20178;-55
2021/06/15 11:42:34;;;;;;;2.40;2.13;;;;;;;;;;5051093;28;20176;-55
2021/06/15 11:45:21;;;;;;;2.37;2.20;;;;;;;;;;5051951;28;20180;-56
2021/06/15 11:47:57;;;;;;;2.47;2.27;;;;;;;;;;5064917;28;20642;-56
2021/06/15 11:50:27;;;;;;;3.67;2.40;;;;;;;;;;5071776;28;20159;-56
2021/06/15 11:53:02;;;;;;;3.33;2.30;;;;;;;;;;5055154;28;20257;-55
2021/06/15 11:55:32;;;;;;;3.27;2.67;;;;;;;;;;5051760;28;20640;-56
2021/06/15 11:57:59;;;;;;;2.60;2.13;;;;;;;;;;5032803;28;20180;-55
2021/06/15 12:00:27;;;;;;;3.38;2.65;;;;;;;;;;5051609;28;20458;-55
2021/06/15 12:03:00;;;;;;;3.70;2.27;;;;;;;;;;5046163;28;20225;-55
2021/06/15 12:05:27;;;;;;;3.40;2.67;;;;;;;;;;5032561;28;21149;-57
2021/06/15 12:07:54;;;;;;;2.40;2.20;;;;;;;;;;5047967;28;20222;-56
2021/06/15 12:10:21;;;;;;;3.33;1.93;;;;;;;;;;5051383;28;20191;-55
2021/06/15 12:13:01;;;;;;;5.53;2.27;;;;;;;;;;5013380;28;20208;-56
2021/06/15 12:15:45;;;;;;;3.77;2.20;;;;;;;;;;5044224;28;20251;-56
2021/06/15 12:18:11;;;;;;;2.47;1.90;;;;;;;;;;5042237;28;20505;-55
2021/06/15 12:20:40;;;;;;;2.37;2.17;;;;;;;;;;5032856;28;20609;-57
2021/06/15 12:23:26;;;;;;;2.57;1.90;;;;;;;;;;5050459;28;20591;-55
2021/06/15 12:25:53;;;;;;;2.47;2.10;;;;;;;;;;5039058;28;20235;-55
2021/06/15 12:28:20;;;;;;;2.60;1.83;;;;;;;;;;5049125;28;20183;-55
2021/06/15 12:30:46;;;;;;;2.33;2.13;;;;;;;;;;5050477;28;20664;-56
2021/06/15 12:33:13;;;;;;;2.20;1.80;;;;;;;;;;5048368;28;20204;-57
2021/06/15 12:35:40;;;;;;;2.70;1.93;;;;;;;;;;5041236;28;20192;-55
2021/06/15 12:38:24;;;;;;;2.30;1.53;;;;;;;;;;5046901;28;20674;-57
2021/06/15 12:40:50;;;;;;;1.90;1.70;;;;;;;;;;5050089;28;20565;-55
2021/06/15 12:43:16;;;;;;;1.80;1.50;;;;;;;;;;5049927;28;20182;-55
2021/06/15 12:45:42;;;;;;;3.73;1.63;;;;;;;;;;5050422;28;20188;-56
2021/06/15 12:48:22;;;;;;;5.67;2.47;;;;;;;;;;5049685;28;20185;-56
2021/06/15 12:50:48;;;;;;;5.10;1.80;;;;;;;;;;5050679;28;20645;-56
2021/06/15 12:53:14;;;;;;;2.23;1.70;;;;;;;;;;5031685;28;20215;-55
2021/06/15 12:55:43;;;;;;;3.43;1.87;;;;;;;;;;5050516;28;20302;-56
2021/06/15 12:58:11;;;;;;;2.90;1.80;;;;;;;;;;5049790;28;20188;-55
2021/06/15 13:00:41;;;;;;;3.43;1.77;;;;;;;;;;5049946;28;20194;-56
2021/06/15 13:03:08;;;;;;;3.40;2.30;;;;;;;;;;5048512;28;20468;-56
2021/06/15 13:05:34;;;;;;;2.70;2.10;;;;;;;;;;5050427;28;20537;-55
2021/06/15 13:08:01;;;;;;;6.67;2.60;;;;;;;;;;5031565;28;20169;-61
2021/06/15 13:11:00;;;;;;;;;;;;;;;;;;;;;
2021/06/15 13:13:34;;;;;;;3.77;2.63;;;;;;;;;;5049841;28;20195;-61
2021/06/15 13:16:12;;;;;;;5.13;2.47;;;;;;;;;;5050918;28;20223;-61
2021/06/15 13:18:38;;;;;;;3.83;2.30;;;;;;;;;;5034725;28;20602;-62
2021/06/15 13:21:05;;;;;;;2.20;2.00;;;;;;;;;;5050266;28;20643;-62
2021/06/15 13:23:41;;;;;;;;;;;;;;;;;;;;;
2021/06/15 13:26:20;;;;;;;3.23;2.10;;;;;;;;;;5041389;28;20195;-64
2021/06/15 13:28:58;;;;;;;3.17;1.90;;;;;;;;;;5032756;28;20184;-62
2021/06/15 13:31:24;;;;;;;4.50;2.00;;;;;;;;;;5040840;28;20223;-62
2021/06/15 13:34:16;;;;;;;2.40;1.90;;;;;;;;;;5049285;28;20191;-61
2021/06/15 13:36:42;;;;;;;2.10;1.77;;;;;;;;;;5042453;28;20192;-61
2021/06/15 13:39:08;;;;;;;5.97;1.90;;;;;;;;;;5036406;28;20178;-62
2021/06/15 13:41:35;;;;;;;5.43;2.20;;;;;;;;;;5031275;28;20782;-61
2021/06/15 13:44:01;;;;;;;4.50;2.00;;;;;;;;;;5049653;28;20783;-65
2021/06/15 13:46:28;;;;;;;2.10;1.80;;;;;;;;;;5047997;28;20202;-61
2021/06/15 13:48:56;;;;;;;3.27;2.13;;;;;;;;;;5026340;28;20191;-62
2021/06/15 13:51:41;;;;;;;;;;;;;;;;;;;;;
2021/06/15 13:54:07;;;;;;;4.33;2.17;;;;;;;;;;5049589;28;20212;-62
2021/06/15 13:56:41;;;;;;;4.50;1.90;;;;;;;;;;5029359;28;20640;-61
2021/06/15 13:59:07;;;;;;;4.37;2.17;;;;;;;;;;5047968;28;20184;-60
2021/06/15 14:01:35;;;;;;;5.17;2.27;;;;;;;;;;5029939;28;20232;-61
2021/06/15 14:04:01;;;;;;;3.70;2.00;;;;;;;;;;5029783;28;20176;-60
2021/06/15 14:06:28;;;;;;;6.83;2.23;;;;;;;;;;5048479;28;20524;-60
2021/06/15 14:08:55;;;;;;;3.10;1.83;;;;;;;;;;5046494;28;20189;-61
2021/06/15 14:11:21;;;;;;;2.20;1.73;;;;;;;;;;5043264;28;20195;-60
2021/06/15 14:13:47;;;;;;;2.43;1.90;;;;;;;;;;5027735;28;20200;-60
2021/06/15 14:16:13;;;;;;;5.90;1.70;;;;;;;;;;5042032;28;20308;-63
2021/06/15 14:18:39;;;;;;;2.80;1.70;;;;;;;;;;5038013;28;20181;-60
2021/06/15 14:21:06;;;;;;;4.00;1.80;;;;;;;;;;5028865;28;20651;-61
2021/06/15 14:23:32;;;;;;;3.27;1.43;;;;;;;;;;5045624;28;20170;-62
2021/06/15 14:25:59;;;;;;;2.80;1.70;;;;;;;;;;5030736;28;20188;-61
2021/06/15 14:28:25;;;;;;;2.97;1.80;;;;;;;;;;5030527;28;20639;-61
2021/06/15 14:30:51;;;;;;;2.70;1.73;;;;;;;;;;5030875;28;20646;-61
2021/06/15 14:33:17;;;;;;;3.47;1.60;;;;;;;;;;5046995;28;20212;-61
2021/06/15 14:35:45;;;;;;;2.57;1.87;;;;;;;;;;5031207;28;20182;-62
2021/06/15 14:38:12;;;;;;;3.37;1.80;;;;;;;;;;5048079;28;20176;-61
2021/06/15 14:40:38;;;;;;;2.30;2.10;;;;;;;;;;5047294;28;20203;-61
2021/06/15 14:43:04;;;;;;;3.57;2.00;;;;;;;;;;5028582;28;21721;-64
2021/06/15 14:45:30;;;;;;;4.47;2.10;;;;;;;;;;5030333;28;20194;-61
2021/06/15 14:47:56;;;;;;;5.90;2.10;;;;;;;;;;5046038;28;20177;-61
2021/06/15 14:50:22;;;;;;;4.03;2.40;;;;;;;;;;5046666;28;20189;-62
2021/06/15 14:52:48;;;;;;;4.70;2.10;;;;;;;;;;5052175;28;20551;-61
2021/06/15 14:55:15;;;;;;;3.97;1.90;;;;;;;;;;5051596;28;20181;-61